Time;durP1;ratioP1;P1;durP2;ratioP2;P2;SDS_P1;SDS_P2;PMS_P1;PMS_P2;Temp;Humidity;BMP_temperature;BMP_pressure;BME280_temperature;BME280_humidity;BME280_pressure;Samples;Min_cycle;Max_cycle;Signal;HPM_P1;HPM_P2
2022/12/18 00:02:12;;;;;;;104.63;30.63;;;-3.70;99.90;;;;;;5107644;28;20046;-83
2022/12/18 00:04:39;;;;;;;104.28;30.83;;;-3.70;99.90;;;;;;5126235;28;20644;-84
2022/12/18 00:07:05;;;;;;;98.00;29.65;;;-2.70;99.90;;;;;;5088563;28;20059;-83
2022/12/18 00:09:32;;;;;;;106.50;30.88;;;-3.60;99.90;;;;;;5068732;28;20101;-84
2022/12/18 00:11:59;;;;;;;111.68;30.95;;;-2.90;99.90;;;;;;5091010;28;20460;-84
2022/12/18 00:14:25;;;;;;;95.80;29.77;;;-2.40;99.90;;;;;;5090429;28;20044;-83
2022/12/18 00:16:52;;;;;;;95.53;29.67;;;-3.60;99.90;;;;;;5091135;28;20036;-83
2022/12/18 00:19:19;;;;;;;102.53;29.80;;;-3.60;99.90;;;;;;5091177;28;20428;-84
2022/12/18 00:21:45;;;;;;;98.05;30.05;;;-3.60;99.90;;;;;;5090985;28;20055;-83
2022/12/18 00:24:12;;;;;;;87.03;29.73;;;-3.50;99.90;;;;;;5091168;28;20119;-84
2022/12/18 00:26:39;;;;;;;96.18;29.10;;;-3.60;99.90;;;;;;5094873;28;20036;-84
2022/12/18 00:29:11;;;;;;;89.03;28.15;;;-3.60;99.90;;;;;;5110991;28;20032;-83
2022/12/18 00:31:38;;;;;;;91.90;27.70;;;-3.60;99.90;;;;;;5128470;28;20047;-83
2022/12/18 00:34:04;;;;;;;91.82;28.27;;;-3.60;99.90;;;;;;5110922;28;20040;-84
2022/12/18 00:36:33;;;;;;;95.85;29.27;;;-3.60;99.90;;;;;;5094648;28;20043;-83
2022/12/18 00:39:02;;;;;;;92.50;27.88;;;-3.60;99.90;;;;;;5110524;28;20119;-83
2022/12/18 00:44:16;;;;;;;102.82;29.95;;;-3.60;99.90;;;;;;5127270;28;20048;-84
2022/12/18 00:46:43;;;;;;;103.93;30.05;;;-3.60;99.90;;;;;;5094135;28;20561;-83
2022/12/18 00:49:10;;;;;;;105.97;30.55;;;-3.60;99.90;;;;;;5093403;28;20044;-83
2022/12/18 00:51:37;;;;;;;99.97;28.90;;;-3.60;99.90;;;;;;5110454;28;20519;-83
2022/12/18 00:54:03;;;;;;;101.63;28.63;;;-3.60;99.90;;;;;;5093432;28;20075;-84
2022/12/18 00:56:30;;;;;;;97.65;29.35;;;-3.60;99.90;;;;;;5093728;28;20048;-82
2022/12/18 00:58:57;;;;;;;90.28;28.42;;;-3.70;99.90;;;;;;5110499;28;20044;-84
2022/12/18 01:01:23;;;;;;;107.53;29.92;;;-3.70;99.90;;;;;;5110361;28;20086;-83
2022/12/18 01:03:50;;;;;;;95.00;28.98;;;-3.70;99.90;;;;;;5110516;28;20131;-83
2022/12/18 01:06:17;;;;;;;84.43;27.85;;;-3.70;99.90;;;;;;5126814;28;20043;-84
2022/12/18 01:08:44;;;;;;;93.30;27.42;;;-3.80;99.90;;;;;;5108275;28;20036;-83
2022/12/18 01:11:14;;;;;;;96.20;28.40;;;-3.70;99.90;;;;;;5109958;28;20385;-83
2022/12/18 01:13:41;;;;;;;95.85;27.55;;;-3.70;99.90;;;;;;5126925;28;20040;-83
2022/12/18 01:16:08;;;;;;;97.90;26.92;;;-3.70;99.90;;;;;;5109881;28;20514;-83
2022/12/18 01:18:35;;;;;;;86.57;27.23;;;-3.80;99.90;;;;;;5106754;28;20397;-84
2022/12/18 01:21:09;;;;;;;85.60;26.80;;;-3.80;99.90;;;;;;5089701;28;20033;-83
2022/12/18 01:23:36;;;;;;;88.22;26.70;;;-3.80;99.90;;;;;;5107048;28;20040;-83
2022/12/18 01:26:22;;;;;;;95.05;26.25;;;-3.80;99.90;;;;;;5106474;28;20051;-81
2022/12/18 01:28:49;;;;;;;98.70;28.13;;;-3.80;99.90;;;;;;5092835;28;20043;-83
2022/12/18 01:31:30;;;;;;;96.30;26.95;;;-3.80;99.90;;;;;;5126648;28;20500;-83
2022/12/18 01:33:59;;;;;;;89.32;26.77;;;-3.80;99.90;;;;;;5127196;28;20036;-83
2022/12/18 01:36:29;;;;;;;75.30;24.50;;;-3.80;99.90;;;;;;5109405;28;20066;-83
2022/12/18 01:38:56;;;;;;;91.63;25.33;;;-3.80;99.90;;;;;;5109026;28;20396;-83
2022/12/18 01:41:26;;;;;;;90.35;27.45;;;-3.80;99.90;;;;;;5088924;28;20040;-83
2022/12/18 01:43:55;;;;;;;91.55;26.85;;;-3.80;99.90;;;;;;5089132;28;20040;-83
2022/12/18 01:46:23;;;;;;;84.20;25.77;;;-3.10;99.90;;;;;;5089152;28;20139;-83
2022/12/18 01:48:57;;;;;;;95.32;27.52;;;-3.80;99.90;;;;;;5073322;28;20036;-82
2022/12/18 01:51:26;;;;;;;90.30;27.33;;;-3.90;99.90;;;;;;5089078;28;20036;-83
2022/12/18 01:53:53;;;;;;;87.60;27.73;;;-3.90;99.90;;;;;;5089271;28;20082;-83
2022/12/18 01:56:23;;;;;;;100.78;27.67;;;-3.90;99.90;;;;;;5089314;28;20052;-82
2022/12/18 01:59:02;;;;;;;88.43;27.75;;;-3.90;99.90;;;;;;5072862;28;20044;-83
2022/12/18 02:01:30;;;;;;;90.15;28.95;;;-3.90;99.90;;;;;;5120001;28;20420;-83
2022/12/18 02:04:20;;;;;;;93.38;26.38;;;-4.00;99.90;;;;;;5126412;28;20072;-83
2022/12/18 02:06:52;;;;;;;99.38;27.52;;;-4.00;99.90;;;;;;5109487;28;20047;-83
2022/12/18 02:09:24;;;;;;;91.93;28.35;;;-4.00;99.90;;;;;;5093005;28;20400;-83
2022/12/18 02:12:13;;;;;;;91.93;28.17;;;-4.00;99.90;;;;;;5126308;28;20043;-83
2022/12/18 02:14:47;;;;;;;97.35;28.08;;;-4.10;99.90;;;;;;5126045;28;20510;-83
2022/12/18 02:17:27;;;;;;;84.63;26.67;;;-4.10;99.90;;;;;;5109169;28;20412;-83
2022/12/18 02:19:59;;;;;;;76.47;26.00;;;-4.20;99.90;;;;;;5126209;28;20094;-83
2022/12/18 02:22:41;;;;;;;86.88;27.33;;;-4.20;99.90;;;;;;5091914;28;20480;-84
2022/12/18 02:25:45;;;;;;;83.30;26.23;;;-4.30;99.90;;;;;;5105895;28;20048;-83
2022/12/18 02:28:16;;;;;;;77.38;25.88;;;-4.30;99.90;;;;;;5105126;28;20041;-82
2022/12/18 02:30:45;;;;;;;72.82;25.98;;;-4.40;99.90;;;;;;5105449;28;20133;-83
2022/12/18 02:33:14;;;;;;;82.97;26.55;;;-4.40;99.90;;;;;;5105746;28;20370;-79
2022/12/18 02:35:42;;;;;;;74.25;25.95;;;-4.40;99.90;;;;;;5088828;28;20044;-83
2022/12/18 02:38:09;;;;;;;77.88;26.80;;;-4.50;99.90;;;;;;5075603;28;20456;-83
2022/12/18 02:40:37;;;;;;;81.65;26.60;;;-4.50;99.90;;;;;;5105942;28;20047;-83
2022/12/18 02:43:12;;;;;;;86.13;27.67;;;-4.50;99.90;;;;;;5097031;28;20056;-83
2022/12/18 02:45:57;;;;;;;73.13;24.88;;;-4.60;99.90;;;;;;5092749;28;20124;-83
2022/12/18 02:48:35;;;;;;;78.25;24.83;;;-4.60;99.90;;;;;;5092574;28;20116;-83
2022/12/18 02:51:11;;;;;;;78.30;26.35;;;-4.60;99.90;;;;;;5109559;28;20045;-83
2022/12/18 02:53:45;;;;;;;87.35;27.23;;;-4.60;99.90;;;;;;5108315;28;20075;-80
2022/12/18 02:56:28;;;;;;;79.57;25.13;;;-4.60;99.90;;;;;;5109541;28;20043;-83
2022/12/18 02:59:00;;;;;;;76.68;25.58;;;-4.70;99.90;;;;;;5092439;28;20059;-83
2022/12/18 03:01:55;;;;;;;86.63;27.10;;;-4.70;99.90;;;;;;5092125;28;20037;-83
2022/12/18 03:04:43;;;;;;;84.75;26.65;;;-4.70;99.90;;;;;;5128139;28;20115;-83
2022/12/18 03:07:19;;;;;;;93.05;28.02;;;-4.80;99.90;;;;;;5129277;28;20044;-83
2022/12/18 03:09:50;;;;;;;95.47;27.05;;;-4.90;99.90;;;;;;5129255;28;20145;-83
2022/12/18 03:12:22;;;;;;;81.10;27.65;;;-4.90;99.90;;;;;;5129300;28;20131;-83
2022/12/18 03:15:01;;;;;;;87.20;27.20;;;-4.90;99.90;;;;;;5094063;28;20048;-83
2022/12/18 03:17:29;;;;;;;79.78;26.75;;;-4.90;99.90;;;;;;5091808;28;20069;-83
2022/12/18 03:19:59;;;;;;;75.20;26.27;;;-5.00;99.90;;;;;;5075917;28;20059;-83
2022/12/18 03:22:29;;;;;;;85.47;28.17;;;-5.00;99.90;;;;;;5091675;28;20060;-83
2022/12/18 03:24:57;;;;;;;88.50;26.90;;;-5.00;99.90;;;;;;5125758;28;20501;-83
2022/12/18 03:27:26;;;;;;;80.60;25.40;;;-4.50;99.90;;;;;;5095120;28;20077;-83
2022/12/18 03:30:07;;;;;;;79.05;24.55;;;-5.10;99.90;;;;;;5112449;28;20507;-83
2022/12/18 03:33:00;;;;;;;82.05;26.35;;;-5.20;99.90;;;;;;5112317;28;20055;-83
2022/12/18 03:35:33;;;;;;;73.25;24.83;;;-5.20;99.90;;;;;;5101587;28;20087;-83
2022/12/18 03:38:00;;;;;;;78.32;25.40;;;-5.20;99.90;;;;;;5108488;28;20435;-81
2022/12/18 03:40:34;;;;;;;80.55;26.20;;;-5.20;99.90;;;;;;5075212;28;20041;-83
2022/12/18 03:43:16;;;;;;;76.50;26.60;;;-5.20;99.90;;;;;;5108016;28;20068;-83
2022/12/18 03:45:52;;;;;;;65.93;22.75;;;-5.20;99.90;;;;;;5108819;28;20084;-83
2022/12/18 03:48:39;;;;;;;71.88;23.05;;;-5.30;99.90;;;;;;5113595;28;20043;-83
2022/12/18 03:51:12;;;;;;;72.28;23.75;;;-5.30;99.90;;;;;;5111536;28;20052;-82
2022/12/18 03:54:12;;;;;;;64.45;23.88;;;-5.40;99.90;;;;;;5111309;28;20051;-83
2022/12/18 03:56:44;;;;;;;57.88;20.33;;;-5.40;99.90;;;;;;5106942;28;20135;-82
2022/12/18 03:59:14;;;;;;;53.30;20.48;;;-5.50;99.90;;;;;;5111671;28;20139;-82
2022/12/18 04:01:46;;;;;;;55.67;20.25;;;-5.50;99.90;;;;;;5128028;28;20048;-83
2022/12/18 04:04:14;;;;;;;56.08;20.17;;;-5.30;99.90;;;;;;5110567;28;20044;-83
2022/12/18 04:06:43;;;;;;;52.67;20.40;;;-5.50;99.90;;;;;;5091028;28;20032;-83
2022/12/18 04:09:10;;;;;;;51.55;19.10;;;-5.50;99.90;;;;;;5108061;28;20043;-83
2022/12/18 04:11:37;;;;;;;54.33;19.38;;;-5.50;99.90;;;;;;5107851;28;20043;-83
2022/12/18 04:14:04;;;;;;;57.28;19.70;;;-5.50;99.90;;;;;;5090991;28;20040;-83
2022/12/18 04:16:30;;;;;;;48.08;19.50;;;-4.90;99.90;;;;;;5091086;28;20051;-82
2022/12/18 04:18:57;;;;;;;47.60;18.55;;;-5.60;99.90;;;;;;5074557;28;20127;-83
2022/12/18 04:21:24;;;;;;;51.28;18.38;;;-5.60;99.90;;;;;;5090929;28;20040;-83
2022/12/18 04:23:51;;;;;;;54.42;19.50;;;-5.60;99.90;;;;;;5073774;28;20770;-83
2022/12/18 04:26:17;;;;;;;47.78;18.17;;;-5.60;99.90;;;;;;5075831;28;20041;-83
2022/12/18 04:28:44;;;;;;;50.83;18.75;;;-5.70;99.90;;;;;;5090627;28;20396;-83
2022/12/18 04:31:11;;;;;;;52.85;18.52;;;-5.70;99.90;;;;;;5090861;28;20409;-83
2022/12/18 04:33:38;;;;;;;50.15;18.25;;;-5.70;99.90;;;;;;5106934;28;20082;-83
2022/12/18 04:36:05;;;;;;;46.17;18.42;;;-5.70;99.90;;;;;;5114254;28;20047;-83
2022/12/18 04:38:32;;;;;;;48.42;19.25;;;-5.70;99.90;;;;;;5094060;28;20373;-83
2022/12/18 04:40:59;;;;;;;52.35;18.92;;;-5.70;99.90;;;;;;5093920;28;20036;-83
2022/12/18 04:43:25;;;;;;;45.90;18.00;;;-5.70;99.90;;;;;;5093553;28;20082;-83
2022/12/18 04:45:52;;;;;;;49.67;18.15;;;-5.80;99.90;;;;;;5109281;28;20036;-76
2022/12/18 04:48:20;;;;;;;51.70;19.30;;;-5.80;99.90;;;;;;5077644;28;20396;-76
2022/12/18 04:50:47;;;;;;;55.03;18.17;;;-5.80;99.90;;;;;;5127428;28;20051;-76
2022/12/18 04:53:13;;;;;;;40.08;16.92;;;-5.80;99.90;;;;;;5077727;28;20032;-76
2022/12/18 04:55:40;;;;;;;50.00;17.85;;;-5.90;99.90;;;;;;5094095;28;20104;-76
2022/12/18 04:58:06;;;;;;;43.72;17.20;;;-5.90;99.90;;;;;;5077032;28;20036;-76
2022/12/18 05:00:33;;;;;;;44.05;17.27;;;-4.80;99.90;;;;;;5126835;28;20400;-77
2022/12/18 05:03:02;;;;;;;45.55;17.15;;;-5.90;99.90;;;;;;5094054;28;20044;-76
2022/12/18 05:05:28;;;;;;;48.72;17.55;;;-5.90;99.90;;;;;;5094420;28;20040;-76
2022/12/18 05:07:55;;;;;;;44.97;17.60;;;-5.90;99.90;;;;;;5114842;28;20049;-76
2022/12/18 05:10:22;;;;;;;46.83;17.77;;;-5.90;99.90;;;;;;5073575;28;20074;-76
2022/12/18 05:12:57;;;;;;;50.30;18.77;;;-5.90;99.90;;;;;;5089947;28;20041;-77
2022/12/18 05:15:29;;;;;;;45.65;16.95;;;-5.90;99.90;;;;;;5075090;28;20123;-76
2022/12/18 05:17:57;;;;;;;38.97;16.50;;;-5.50;99.90;;;;;;5106407;28;20412;-76
2022/12/18 05:20:24;;;;;;;42.17;15.98;;;-5.00;99.90;;;;;;5090004;28;20036;-76
2022/12/18 05:22:51;;;;;;;41.33;17.10;;;-5.90;99.90;;;;;;5073118;28;20039;-76
2022/12/18 05:25:18;;;;;;;44.00;17.02;;;-5.90;99.90;;;;;;5073445;28;20047;-76
2022/12/18 05:27:45;;;;;;;44.78;16.95;;;-5.90;99.90;;;;;;5073531;28;20040;-76
2022/12/18 05:30:13;;;;;;;40.05;16.60;;;-5.90;99.90;;;;;;5073398;28;20032;-76
2022/12/18 05:32:40;;;;;;;44.15;17.23;;;-5.40;99.90;;;;;;5072848;28;20048;-76
2022/12/18 05:35:08;;;;;;;41.78;16.20;;;-6.00;99.90;;;;;;5106243;28;20040;-76
2022/12/18 05:37:35;;;;;;;42.58;17.52;;;-6.00;99.90;;;;;;5089531;28;20358;-76
2022/12/18 05:40:04;;;;;;;42.80;16.50;;;-6.00;99.90;;;;;;5091179;28;20555;-76
2022/12/18 05:42:31;;;;;;;42.88;15.00;;;-6.00;99.90;;;;;;5109367;28;20052;-76
2022/12/18 05:44:57;;;;;;;38.70;15.82;;;-6.00;99.90;;;;;;5109232;28;20415;-76
2022/12/18 05:47:24;;;;;;;41.30;15.48;;;-6.00;99.90;;;;;;5093235;28;20489;-76
2022/12/18 05:49:51;;;;;;;45.00;16.67;;;-6.00;99.90;;;;;;5092946;28;20040;-76
2022/12/18 05:52:17;;;;;;;39.67;15.98;;;-6.00;99.90;;;;;;5093190;28;20094;-76
2022/12/18 05:54:44;;;;;;;39.40;16.27;;;-6.00;99.90;;;;;;5076303;28;20035;-76
2022/12/18 05:57:11;;;;;;;34.20;14.73;;;-6.00;99.90;;;;;;5093208;28;20399;-76
2022/12/18 05:59:37;;;;;;;38.17;15.63;;;-4.80;99.90;;;;;;5089572;28;20040;-76
2022/12/18 06:02:04;;;;;;;38.50;14.70;;;-6.00;99.90;;;;;;5081853;28;20079;-76
2022/12/18 06:04:31;;;;;;;40.40;15.63;;;-6.00;99.90;;;;;;5089542;28;20039;-76
2022/12/18 06:07:01;;;;;;;36.58;16.13;;;-6.10;99.90;;;;;;5107386;28;20032;-76
2022/12/18 06:09:29;;;;;;;36.40;15.10;;;-6.10;99.90;;;;;;5092644;28;20044;-76
2022/12/18 06:11:55;;;;;;;39.08;15.25;;;-6.10;99.90;;;;;;5108376;28;20508;-76
2022/12/18 06:14:22;;;;;;;36.60;15.02;;;-6.10;99.90;;;;;;5076454;28;20126;-76
2022/12/18 06:16:51;;;;;;;38.42;15.48;;;-5.40;99.90;;;;;;5092813;28;20044;-76
2022/12/18 06:19:18;;;;;;;31.63;14.75;;;-6.20;99.90;;;;;;5126447;28;20044;-76
2022/12/18 06:21:45;;;;;;;41.50;15.98;;;-6.20;99.90;;;;;;5092173;28;20867;-77
2022/12/18 06:24:11;;;;;;;36.78;14.95;;;-6.20;99.90;;;;;;5109505;28;20039;-76
2022/12/18 06:26:39;;;;;;;41.20;16.10;;;-6.20;99.90;;;;;;5058755;28;20040;-76
2022/12/18 06:29:06;;;;;;;35.45;15.25;;;-6.20;99.90;;;;;;5088735;28;20051;-76
2022/12/18 06:31:32;;;;;;;39.88;16.20;;;-6.20;99.90;;;;;;5105609;28;20390;-76
2022/12/18 06:34:01;;;;;;;40.85;15.70;;;-6.20;99.90;;;;;;5071988;28;20040;-76
2022/12/18 06:36:29;;;;;;;35.03;14.88;;;-6.30;99.90;;;;;;5088801;28;20550;-76
2022/12/18 06:38:57;;;;;;;34.42;15.32;;;-6.30;99.90;;;;;;5072036;28;20127;-76
2022/12/18 06:41:24;;;;;;;38.90;17.08;;;-6.30;99.90;;;;;;5088657;28;20133;-76
2022/12/18 06:43:50;;;;;;;77.60;27.95;;;-6.30;99.90;;;;;;5071525;28;20088;-76
2022/12/18 06:46:17;;;;;;;128.52;40.38;;;-6.30;99.90;;;;;;5080011;28;20090;-76
2022/12/18 06:48:47;;;;;;;125.53;41.72;;;-6.30;99.90;;;;;;5072257;28;20106;-76
2022/12/18 06:51:19;;;;;;;72.57;26.92;;;-5.90;99.90;;;;;;5088694;28;20393;-76
2022/12/18 06:53:46;;;;;;;55.75;22.08;;;-6.30;99.90;;;;;;5105435;28;20044;-76
2022/12/18 06:56:13;;;;;;;42.40;18.60;;;-6.30;99.90;;;;;;5088811;28;20040;-76
2022/12/18 06:58:40;;;;;;;49.08;19.73;;;-6.40;99.90;;;;;;5088681;28;20036;-76
2022/12/18 07:01:10;;;;;;;44.15;18.52;;;-6.40;99.90;;;;;;5086006;28;20036;-76
2022/12/18 07:03:41;;;;;;;39.47;16.38;;;-6.50;99.90;;;;;;5129357;28;20042;-76
2022/12/18 07:06:14;;;;;;;34.75;14.88;;;-6.50;99.90;;;;;;5106255;28;20039;-76
2022/12/18 07:08:41;;;;;;;36.55;15.23;;;-6.20;99.90;;;;;;5134534;28;20569;-76
2022/12/18 07:11:08;;;;;;;31.38;13.65;;;-6.40;99.90;;;;;;5111019;28;20048;-76
2022/12/18 07:13:35;;;;;;;32.28;13.63;;;-6.50;99.90;;;;;;5092331;28;20040;-76
2022/12/18 07:16:05;;;;;;;34.70;14.35;;;-6.50;99.90;;;;;;5122884;28;20040;-77
2022/12/18 07:18:33;;;;;;;29.88;14.25;;;-6.50;99.90;;;;;;5117999;28;20123;-80
2022/12/18 07:21:05;;;;;;;33.25;14.20;;;-6.50;99.90;;;;;;5128325;28;20086;-76
2022/12/18 07:23:33;;;;;;;35.67;13.75;;;-5.80;99.90;;;;;;5122816;28;20449;-76
2022/12/18 07:26:05;;;;;;;31.35;13.43;;;-6.50;99.90;;;;;;5139381;28;20036;-76
2022/12/18 07:28:32;;;;;;;31.98;13.82;;;-6.50;99.90;;;;;;5116524;28;20048;-76
2022/12/18 07:31:03;;;;;;;34.25;14.00;;;-6.50;99.90;;;;;;5097004;28;20560;-76
2022/12/18 07:33:30;;;;;;;29.23;13.13;;;-6.50;99.90;;;;;;5092077;28;20044;-76
2022/12/18 07:35:59;;;;;;;34.22;13.85;;;-6.50;99.90;;;;;;5075117;28;20040;-76
2022/12/18 07:38:25;;;;;;;31.80;13.52;;;-6.50;99.90;;;;;;5126704;28;20043;-76
2022/12/18 07:40:52;;;;;;;34.13;14.13;;;-6.50;99.90;;;;;;5078458;28;20035;-76
2022/12/18 07:43:19;;;;;;;37.70;14.10;;;-5.20;99.90;;;;;;5117041;28;20719;-76
2022/12/18 07:45:49;;;;;;;33.83;13.48;;;-6.40;99.90;;;;;;5114504;28;20188;-76
2022/12/18 07:48:16;;;;;;;32.17;12.93;;;-6.40;99.90;;;;;;5136406;28;20069;-76
2022/12/18 07:50:42;;;;;;;33.05;12.93;;;-6.40;99.90;;;;;;5149639;28;20040;-77
2022/12/18 07:53:09;;;;;;;29.75;13.75;;;-6.20;99.90;;;;;;5088770;28;20111;-76
2022/12/18 07:55:36;;;;;;;32.15;14.30;;;-6.30;99.90;;;;;;5078625;28;20114;-76
2022/12/18 07:58:04;;;;;;;31.17;13.02;;;-6.40;99.90;;;;;;5114369;28;20036;-76
2022/12/18 08:00:31;;;;;;;28.23;12.57;;;-6.30;99.90;;;;;;5114103;28;20068;-76
2022/12/18 08:02:57;;;;;;;27.25;13.82;;;-6.30;99.90;;;;;;5126939;28;20044;-77
2022/12/18 08:05:24;;;;;;;32.38;13.68;;;-6.30;99.90;;;;;;5101386;28;20033;-76
2022/12/18 08:07:51;;;;;;;33.38;13.77;;;-6.30;99.90;;;;;;5109690;28;20035;-77
2022/12/18 08:10:18;;;;;;;35.03;14.23;;;-6.20;99.90;;;;;;5121495;28;20067;-76
2022/12/18 08:12:44;;;;;;;35.55;14.15;;;-6.20;99.90;;;;;;5111493;28;20040;-75
2022/12/18 08:15:11;;;;;;;30.40;13.55;;;-6.20;99.90;;;;;;5121666;28;20040;-76
2022/12/18 08:17:38;;;;;;;33.33;14.00;;;-5.40;99.90;;;;;;5120640;28;20050;-76
2022/12/18 08:20:05;;;;;;;33.85;13.77;;;-6.10;99.90;;;;;;5114670;28;20043;-76
2022/12/18 08:22:35;;;;;;;28.10;12.27;;;-6.10;99.90;;;;;;5091030;28;20507;-76
2022/12/18 08:25:03;;;;;;;30.08;13.38;;;-6.10;99.90;;;;;;5117512;28;20031;-77
2022/12/18 08:27:30;;;;;;;29.85;13.20;;;-6.00;99.90;;;;;;5125567;28;20032;-76
2022/12/18 08:29:57;;;;;;;30.33;13.45;;;-6.00;99.90;;;;;;5101166;28;20481;-76
2022/12/18 08:32:26;;;;;;;25.63;11.95;;;-6.00;99.90;;;;;;5100557;28;20400;-76
2022/12/18 08:34:52;;;;;;;27.02;13.15;;;-5.90;99.90;;;;;;5093387;28;20051;-76
2022/12/18 08:37:19;;;;;;;30.05;12.55;;;-5.90;99.90;;;;;;5093853;28;20032;-76
2022/12/18 08:39:46;;;;;;;24.30;11.90;;;-5.90;99.90;;;;;;5088164;28;20040;-76
2022/12/18 08:44:57;;;;;;;27.52;13.23;;;-5.80;99.90;;;;;;5092412;28;20396;-76
2022/12/18 08:47:25;;;;;;;27.30;12.10;;;-5.80;99.90;;;;;;5077180;28;20047;-76
2022/12/18 08:49:52;;;;;;;27.88;11.80;;;-5.70;99.90;;;;;;5111791;28;20040;-76
2022/12/18 08:52:19;;;;;;;26.23;12.38;;;-5.70;99.90;;;;;;5130282;28;20109;-76
2022/12/18 08:54:45;;;;;;;24.75;11.75;;;-5.80;99.90;;;;;;5103205;28;20408;-76
2022/12/18 08:57:12;;;;;;;23.85;10.65;;;-5.70;99.90;;;;;;5113019;28;20042;-77
2022/12/18 08:59:38;;;;;;;23.30;11.15;;;-5.60;99.90;;;;;;5076377;28;20044;-76
2022/12/18 09:02:05;;;;;;;24.98;12.23;;;-5.60;99.90;;;;;;5100211;28;20048;-76
2022/12/18 09:04:32;;;;;;;20.73;10.65;;;-5.50;99.90;;;;;;5105115;28;20384;-76
2022/12/18 09:06:58;;;;;;;21.50;10.50;;;-4.60;99.90;;;;;;5084081;28;20082;-76
2022/12/18 09:09:25;;;;;;;26.40;11.00;;;-5.50;99.90;;;;;;5092955;28;20126;-76
2022/12/18 09:11:52;;;;;;;23.45;11.07;;;-5.40;99.90;;;;;;5096062;28;20423;-78
2022/12/18 09:14:18;;;;;;;25.15;11.50;;;-5.40;99.90;;;;;;5075927;28;20044;-77
2022/12/18 09:16:45;;;;;;;21.70;10.02;;;-5.30;99.90;;;;;;5126009;28;20052;-77
2022/12/18 09:19:12;;;;;;;23.00;10.45;;;-5.30;99.90;;;;;;5073646;28;20043;-76
2022/12/18 09:21:39;;;;;;;22.20;10.45;;;-5.20;99.90;;;;;;5125112;28;20124;-77
2022/12/18 09:24:06;;;;;;;23.83;10.75;;;-5.20;99.90;;;;;;5109417;28;20071;-76
2022/12/18 09:26:32;;;;;;;20.42;9.95;;;-5.20;99.90;;;;;;5083832;28;20468;-76
2022/12/18 09:28:59;;;;;;;20.60;10.82;;;-5.10;99.90;;;;;;5092258;28;20075;-77
2022/12/18 09:31:26;;;;;;;17.33;9.07;;;-5.00;99.90;;;;;;5092802;28;20036;-77
2022/12/18 09:33:55;;;;;;;19.23;9.30;;;-4.70;99.90;;;;;;5109915;28;20046;-77
2022/12/18 09:36:22;;;;;;;15.73;8.35;;;-4.90;99.90;;;;;;5092274;28;20415;-77
2022/12/18 09:38:48;;;;;;;16.33;8.02;;;-3.60;99.90;;;;;;5072657;28;20037;-77
2022/12/18 09:41:33;;;;;;;15.45;8.18;;;-4.80;99.90;;;;;;5091924;28;20423;-78
2022/12/18 09:44:30;;;;;;;17.40;7.90;;;-4.70;99.90;;;;;;5108996;28;20065;-77
2022/12/18 09:47:09;;;;;;;16.90;7.80;;;-4.60;99.90;;;;;;5108864;28;20128;-77
2022/12/18 09:49:43;;;;;;;19.13;8.13;;;-4.50;99.90;;;;;;5109607;28;20046;-77
2022/12/18 09:52:32;;;;;;;18.88;8.25;;;-4.40;99.90;;;;;;5108907;28;20048;-77
2022/12/18 09:55:05;;;;;;;14.98;7.38;;;-4.40;99.90;;;;;;5109141;28;20407;-77
2022/12/18 09:57:35;;;;;;;14.63;7.30;;;-4.30;99.90;;;;;;5125424;28;20039;-77
2022/12/18 10:00:21;;;;;;;16.85;7.78;;;-4.30;99.90;;;;;;5109372;28;20044;-77
2022/12/18 10:02:51;;;;;;;14.52;7.80;;;-4.20;99.90;;;;;;5108907;28;20097;-77
2022/12/18 10:05:40;;;;;;;15.88;7.30;;;-4.10;99.90;;;;;;5108985;28;20484;-77
2022/12/18 10:08:18;;;;;;;12.13;6.65;;;-4.10;99.90;;;;;;5125371;28;20047;-76
2022/12/18 10:11:19;;;;;;;12.00;6.93;;;-4.10;99.90;;;;;;5109393;28;20043;-77
2022/12/18 10:13:54;;;;;;;14.65;6.82;;;-4.00;99.90;;;;;;5095166;28;20583;-77
2022/12/18 10:16:36;;;;;;;12.85;6.30;;;-4.00;99.90;;;;;;5115942;28;20029;-77
2022/12/18 10:19:37;;;;;;;13.00;6.45;;;-4.00;99.90;;;;;;5121761;28;20407;-77
2022/12/18 10:22:22;;;;;;;13.40;6.68;;;-3.90;99.90;;;;;;5089304;28;20051;-77
2022/12/18 10:25:22;;;;;;;13.52;6.78;;;-3.90;99.90;;;;;;5121973;28;20046;-77
2022/12/18 10:27:55;;;;;;;13.45;6.53;;;-3.90;99.90;;;;;;5125900;28;20126;-77
2022/12/18 10:30:23;;;;;;;14.18;6.55;;;-3.80;99.90;;;;;;5088272;28;20087;-77
2022/12/18 10:32:50;;;;;;;13.50;6.70;;;-3.80;99.90;;;;;;5088631;28;20062;-77
2022/12/18 10:35:23;;;;;;;14.13;6.20;;;-3.70;99.90;;;;;;5099014;28;20044;-76
2022/12/18 10:38:12;;;;;;;14.32;6.47;;;-3.60;99.90;;;;;;5123528;28;20040;-76
2022/12/18 10:40:54;;;;;;;12.60;6.18;;;-3.60;99.90;;;;;;5088606;28;20514;-77
2022/12/18 10:43:27;;;;;;;12.90;5.85;;;-3.50;99.90;;;;;;5104257;28;20508;-76
2022/12/18 10:46:03;;;;;;;13.77;6.25;;;-2.60;99.90;;;;;;5131382;28;20062;-76
2022/12/18 10:48:30;;;;;;;;;;;-3.40;99.90;;;;;;5129143;28;20046;-76
2022/12/18 10:50:57;;;;;;;11.32;5.80;;;-3.30;99.90;;;;;;5125394;28;19920;-76
2022/12/18 10:53:27;;;;;;;14.95;5.85;;;-3.30;99.90;;;;;;5097762;28;20066;-76
2022/12/18 10:55:58;;;;;;;12.93;6.32;;;-3.30;99.90;;;;;;5106739;28;20040;-76
2022/12/18 10:58:26;;;;;;;15.13;6.45;;;-3.30;99.90;;;;;;5110140;28;20089;-76
2022/12/18 11:01:08;;;;;;;12.07;5.82;;;-3.20;99.90;;;;;;5128211;28;20396;-76
2022/12/18 11:03:39;;;;;;;14.75;6.38;;;-3.30;99.90;;;;;;5130233;28;20564;-76
2022/12/18 11:06:12;;;;;;;12.50;6.20;;;-3.30;99.90;;;;;;5127384;28;20130;-76
2022/12/18 11:08:41;;;;;;;12.70;6.13;;;-3.20;99.90;;;;;;5134839;28;20063;-76
2022/12/18 11:11:28;;;;;;;14.15;6.50;;;-3.20;99.90;;;;;;5117577;28;20047;-76
2022/12/18 11:14:12;;;;;;;13.88;5.85;;;-3.20;99.90;;;;;;5149504;28;20043;-76
2022/12/18 11:16:47;;;;;;;11.18;5.68;;;-3.10;99.90;;;;;;5132577;28;20040;-76
2022/12/18 11:19:32;;;;;;;13.60;5.90;;;-3.10;99.90;;;;;;5132792;28;20043;-77
2022/12/18 11:22:00;;;;;;;12.05;5.82;;;-3.00;99.90;;;;;;5127236;28;20047;-76
2022/12/18 11:24:35;;;;;;;14.48;6.40;;;-3.00;99.90;;;;;;5092003;28;20377;-76
2022/12/18 11:27:04;;;;;;;12.07;5.78;;;-2.90;99.90;;;;;;5092192;28;20128;-76
2022/12/18 11:29:35;;;;;;;12.30;5.70;;;-2.90;99.90;;;;;;5130282;28;20036;-77
2022/12/18 11:32:24;;;;;;;10.32;5.47;;;-2.80;99.90;;;;;;5149935;28;20498;-77
2022/12/18 11:35:28;;;;;;;12.65;6.00;;;-2.80;99.90;;;;;;5132173;28;20560;-77
2022/12/18 11:38:02;;;;;;;13.65;6.30;;;-2.70;99.90;;;;;;5108727;28;20048;-77
2022/12/18 11:40:37;;;;;;;13.30;5.72;;;-2.60;99.90;;;;;;5091841;28;20054;-77
2022/12/18 11:43:13;;;;;;;12.43;6.00;;;-1.70;99.90;;;;;;5107075;28;20177;-77
2022/12/18 11:46:08;;;;;;;13.13;5.68;;;-2.50;99.90;;;;;;5112146;28;20040;-77
2022/12/18 11:49:08;;;;;;;13.80;6.05;;;-2.50;99.90;;;;;;5123060;28;20153;-76
2022/12/18 11:51:43;;;;;;;18.65;5.40;;;-2.50;99.90;;;;;;5107927;28;20055;-77
2022/12/18 11:54:15;;;;;;;11.77;5.83;;;-1.10;99.90;;;;;;5112218;28;20090;-77
2022/12/18 11:57:03;;;;;;;11.38;5.45;;;-1.00;99.90;;;;;;5111717;28;20786;-76
2022/12/18 11:59:52;;;;;;;11.73;5.82;;;-2.40;99.90;;;;;;5111613;28;20044;-77
2022/12/18 12:02:56;;;;;;;9.77;4.90;;;-2.30;99.90;;;;;;5091320;28;20485;-77
2022/12/18 12:05:53;;;;;;;11.43;5.30;;;-2.30;99.90;;;;;;5091440;28;20049;-77
2022/12/18 12:08:50;;;;;;;10.20;4.93;;;-2.20;99.90;;;;;;5091420;28;20041;-77
2022/12/18 12:11:42;;;;;;;10.00;5.30;;;-2.20;99.90;;;;;;5101487;28;20055;-76
2022/12/18 12:14:26;;;;;;;10.15;5.28;;;-2.20;99.90;;;;;;5111929;28;20036;-77
2022/12/18 12:17:11;;;;;;;12.85;5.93;;;-2.20;99.90;;;;;;5111594;28;20066;-77
2022/12/18 12:19:49;;;;;;;11.52;5.63;;;-1.50;99.90;;;;;;5111048;28;20040;-77
2022/12/18 12:22:21;;;;;;;10.48;5.05;;;-2.10;99.90;;;;;;5126858;28;20524;-77
2022/12/18 12:24:57;;;;;;;12.57;5.40;;;-2.10;99.90;;;;;;5092794;28;20123;-77
2022/12/18 12:27:33;;;;;;;9.43;4.85;;;-0.90;99.90;;;;;;5090419;28;20611;-76
2022/12/18 12:30:13;;;;;;;13.32;5.47;;;-2.00;99.90;;;;;;5090799;28;20480;-76
2022/12/18 12:32:54;;;;;;;12.75;5.50;;;-2.00;99.90;;;;;;5107104;28;20047;-76
2022/12/18 12:35:39;;;;;;;9.75;5.15;;;-1.10;99.90;;;;;;5105729;28;20098;-76
2022/12/18 12:38:15;;;;;;;14.02;5.40;;;-2.00;99.90;;;;;;5127189;28;20044;-77
2022/12/18 12:40:57;;;;;;;10.50;5.28;;;-1.90;99.90;;;;;;5106099;28;20044;-77
2022/12/18 12:43:44;;;;;;;10.35;5.38;;;-1.90;99.90;;;;;;5130943;28;20063;-77
2022/12/18 12:46:14;;;;;;;11.10;5.35;;;-1.00;99.90;;;;;;5123502;28;20492;-77
2022/12/18 12:48:41;;;;;;;9.35;5.32;;;-1.90;99.90;;;;;;5110370;28;20047;-77
2022/12/18 12:51:19;;;;;;;17.23;7.78;;;-1.10;99.90;;;;;;5114245;28;20426;-77
2022/12/18 12:53:47;;;;;;;11.05;5.65;;;-1.90;99.90;;;;;;5103080;28;20039;-77
2022/12/18 12:56:17;;;;;;;11.27;5.50;;;-1.10;99.90;;;;;;5093465;28;20070;-77
2022/12/18 12:59:22;;;;;;;11.05;5.80;;;-2.00;99.90;;;;;;5099257;28;20063;-77
2022/12/18 13:02:22;;;;;;;13.25;5.38;;;-1.90;99.90;;;;;;5110724;28;20458;-77